Time;durP1;ratioP1;P1;durP2;ratioP2;P2;SDS_P1;SDS_P2;PMS_P1;PMS_P2;Temp;Humidity;BMP_temperature;BMP_pressure;BME280_temperature;BME280_humidity;BME280_pressure;Samples;Min_cycle;Max_cycle;Signal;HPM_P1;HPM_P2
2021/04/30 00:02:04;;;;;;;18.63;5.10;;;8.50;99.90;;;;;;5065098;28;20228;-78
2021/04/30 00:04:30;;;;;;;17.17;5.33;;;8.50;99.90;;;;;;5083167;28;20219;-78
2021/04/30 00:06:57;;;;;;;14.03;4.60;;;8.60;99.90;;;;;;5084750;28;20208;-78
2021/04/30 00:09:24;;;;;;;14.97;4.80;;;8.60;99.90;;;;;;5085346;28;20208;-79
2021/04/30 00:11:51;;;;;;;22.00;5.60;;;8.60;99.90;;;;;;5064699;28;20197;-78
2021/04/30 00:14:18;;;;;;;9.97;4.70;;;8.60;99.90;;;;;;5064615;28;20617;-77
2021/04/30 00:16:45;;;;;;;16.30;5.23;;;8.60;99.90;;;;;;5064538;28;20216;-77
2021/04/30 00:19:11;;;;;;;20.50;5.60;;;8.60;99.90;;;;;;5064037;28;20227;-79
2021/04/30 00:21:37;;;;;;;12.70;5.37;;;8.60;99.90;;;;;;5064414;28;20197;-78
2021/04/30 00:24:05;;;;;;;20.20;5.57;;;8.60;99.90;;;;;;5064779;28;20205;-78
2021/04/30 00:26:31;;;;;;;16.93;5.27;;;8.50;99.90;;;;;;5063311;28;20280;-79
2021/04/30 00:28:59;;;;;;;17.20;4.93;;;8.50;99.90;;;;;;5065737;28;20209;-79
2021/04/30 00:31:25;;;;;;;20.10;5.87;;;8.50;99.90;;;;;;5064946;28;20785;-79
2021/04/30 00:33:51;;;;;;;16.10;4.93;;;8.50;99.90;;;;;;5064216;28;20201;-79
2021/04/30 00:36:18;;;;;;;12.50;5.00;;;8.50;99.90;;;;;;5064862;28;20201;-78
2021/04/30 00:38:44;;;;;;;18.27;5.43;;;8.40;99.90;;;;;;5063770;28;20214;-77
2021/04/30 00:41:10;;;;;;;11.43;4.97;;;8.50;99.90;;;;;;5064351;28;20218;-79
2021/04/30 00:43:36;;;;;;;15.80;5.40;;;8.40;99.90;;;;;;5064140;28;20229;-78
2021/04/30 00:46:04;;;;;;;13.00;5.53;;;8.40;99.90;;;;;;5068030;28;20258;-79
2021/04/30 00:48:30;;;;;;;16.47;5.63;;;8.40;99.90;;;;;;5084757;28;20197;-78
2021/04/30 00:50:56;;;;;;;17.23;6.03;;;8.40;99.90;;;;;;5084798;28;20197;-77
2021/04/30 00:53:23;;;;;;;15.60;6.23;;;8.40;99.90;;;;;;5080386;28;20244;-77
2021/04/30 00:55:49;;;;;;;19.57;6.63;;;8.50;99.90;;;;;;5062977;28;20650;-76
2021/04/30 00:58:15;;;;;;;22.63;6.40;;;8.50;99.90;;;;;;5063497;28;20995;-76
2021/04/30 01:00:42;;;;;;;12.67;5.43;;;8.50;99.90;;;;;;5063562;28;20204;-77
2021/04/30 01:03:10;;;;;;;19.67;6.50;;;8.50;99.90;;;;;;5063772;28;20217;-77
2021/04/30 01:05:37;;;;;;;18.73;6.13;;;8.40;99.90;;;;;;5063525;28;20220;-78
2021/04/30 01:08:04;;;;;;;20.60;6.20;;;8.40;99.90;;;;;;5063625;28;20197;-77
2021/04/30 01:10:30;;;;;;;22.83;7.13;;;8.40;99.90;;;;;;5063295;28;20209;-77
2021/04/30 01:12:56;;;;;;;21.87;6.67;;;8.40;99.90;;;;;;5064264;28;20250;-77
2021/04/30 01:15:24;;;;;;;18.67;6.73;;;8.30;99.90;;;;;;5063290;28;20201;-78
2021/04/30 01:17:50;;;;;;;22.67;7.33;;;8.40;99.90;;;;;;5064542;28;20492;-78
2021/04/30 01:20:19;;;;;;;19.50;6.57;;;8.40;99.90;;;;;;5064065;28;20249;-80
2021/04/30 01:22:47;;;;;;;18.37;7.77;;;8.30;99.90;;;;;;5063241;28;20229;-78
2021/04/30 01:25:15;;;;;;;14.73;6.03;;;8.30;99.90;;;;;;5064395;28;20205;-81
2021/04/30 01:27:42;;;;;;;21.27;7.50;;;8.30;99.90;;;;;;5063851;28;20205;-80
2021/04/30 01:30:12;;;;;;;21.13;6.73;;;8.20;99.90;;;;;;5064305;28;20201;-79
2021/04/30 01:32:38;;;;;;;15.07;6.37;;;8.20;99.90;;;;;;5063953;28;20250;-77
2021/04/30 01:35:06;;;;;;;15.13;6.63;;;8.20;99.90;;;;;;5064182;28;20554;-80
2021/04/30 01:37:32;;;;;;;15.07;6.20;;;8.20;99.90;;;;;;5063263;28;20509;-77
2021/04/30 01:40:00;;;;;;;21.97;6.93;;;8.20;99.90;;;;;;5063751;28;20639;-78
2021/04/30 01:42:26;;;;;;;21.60;7.60;;;8.20;99.90;;;;;;5078908;28;20277;-78
2021/04/30 01:44:52;;;;;;;22.70;8.77;;;8.20;99.90;;;;;;5084488;28;20193;-79
2021/04/30 01:47:19;;;;;;;19.67;7.27;;;8.20;99.90;;;;;;5075439;28;20678;-78
2021/04/30 01:49:45;;;;;;;25.17;7.53;;;8.20;99.90;;;;;;5063635;28;20255;-77
2021/04/30 01:52:12;;;;;;;23.53;6.67;;;8.20;99.90;;;;;;5065976;28;20205;-78
2021/04/30 01:54:39;;;;;;;19.47;7.30;;;8.20;99.90;;;;;;5068425;28;20237;-81
2021/04/30 01:57:08;;;;;;;27.10;9.10;;;8.20;99.90;;;;;;5070267;28;20209;-80
2021/04/30 01:59:34;;;;;;;17.20;7.63;;;8.20;99.90;;;;;;5066333;28;20216;-80
2021/04/30 02:02:01;;;;;;;13.63;7.73;;;8.10;99.90;;;;;;5072758;28;20225;-78
2021/04/30 02:04:27;;;;;;;19.20;8.00;;;8.10;99.90;;;;;;5076385;28;20196;-81
2021/04/30 02:06:53;;;;;;;17.00;7.73;;;8.10;99.90;;;;;;5068487;28;20521;-78
2021/04/30 02:09:19;;;;;;;23.13;8.50;;;8.10;99.90;;;;;;5064743;28;20232;-79
2021/04/30 02:11:46;;;;;;;23.87;9.20;;;8.10;99.90;;;;;;5063160;28;20239;-78
2021/04/30 02:14:13;;;;;;;19.93;8.00;;;8.10;99.90;;;;;;5064636;28;20201;-79
2021/04/30 02:16:39;;;;;;;26.67;9.57;;;8.10;99.90;;;;;;5063350;28;20496;-80
2021/04/30 02:19:05;;;;;;;16.70;8.23;;;8.20;99.90;;;;;;5062585;28;20574;-78
2021/04/30 02:21:32;;;;;;;18.10;7.43;;;8.20;99.90;;;;;;5064589;28;20246;-80
2021/04/30 02:24:00;;;;;;;15.53;7.20;;;8.20;99.90;;;;;;5067825;28;20201;-79
2021/04/30 02:26:28;;;;;;;23.13;8.73;;;8.10;99.90;;;;;;5066988;28;20259;-78
2021/04/30 02:28:54;;;;;;;20.10;7.47;;;8.10;99.90;;;;;;5066448;28;20202;-80
2021/04/30 02:31:21;;;;;;;16.37;7.67;;;8.10;99.90;;;;;;5066476;28;20205;-81
2021/04/30 02:33:47;;;;;;;22.60;8.53;;;8.10;99.90;;;;;;5066828;28;20201;-79
2021/04/30 02:36:14;;;;;;;17.00;8.40;;;8.10;99.90;;;;;;5066891;28;20754;-78
2021/04/30 02:38:40;;;;;;;18.00;8.17;;;8.10;99.90;;;;;;5066688;28;20213;-78
2021/04/30 02:41:07;;;;;;;22.27;9.57;;;8.10;99.90;;;;;;5066139;28;20251;-80
2021/04/30 02:43:33;;;;;;;17.40;8.73;;;8.10;99.90;;;;;;5066233;28;20228;-78
2021/04/30 02:46:01;;;;;;;23.73;9.60;;;8.10;99.90;;;;;;5065890;28;20197;-80
2021/04/30 02:48:32;;;;;;;23.43;9.57;;;8.10;99.90;;;;;;5066188;28;20245;-81
2021/04/30 02:51:00;;;;;;;22.67;8.93;;;8.10;99.90;;;;;;5067768;28;20197;-81
2021/04/30 02:53:27;;;;;;;20.13;9.07;;;8.00;99.90;;;;;;5066229;28;20271;-80
2021/04/30 02:55:53;;;;;;;20.60;9.50;;;8.00;99.90;;;;;;5067307;28;20590;-80
2021/04/30 02:58:19;;;;;;;17.30;8.20;;;8.00;99.90;;;;;;5066864;28;20574;-78
2021/04/30 03:00:46;;;;;;;20.13;9.87;;;8.00;99.90;;;;;;5065809;28;20205;-81
2021/04/30 03:03:13;;;;;;;16.27;8.80;;;8.00;99.90;;;;;;5066881;28;20566;-79
2021/04/30 03:05:41;;;;;;;25.37;9.90;;;8.00;99.90;;;;;;5066999;28;20980;-79
2021/04/30 03:08:07;;;;;;;18.93;9.23;;;7.90;99.90;;;;;;5066837;28;20205;-80
2021/04/30 03:10:34;;;;;;;19.00;8.97;;;8.00;99.90;;;;;;5067807;28;20442;-80
2021/04/30 03:13:00;;;;;;;16.90;8.37;;;7.90;99.90;;;;;;5067637;28;20251;-81
2021/04/30 03:15:27;;;;;;;16.43;8.30;;;7.90;99.90;;;;;;5066546;28;20197;-80
2021/04/30 03:17:54;;;;;;;26.87;10.20;;;7.90;99.90;;;;;;5067250;28;20262;-80
2021/04/30 03:20:21;;;;;;;19.17;8.73;;;7.90;99.90;;;;;;5067218;28;20301;-78
2021/04/30 03:22:49;;;;;;;19.07;9.23;;;7.90;99.90;;;;;;5066449;28;20217;-82
2021/04/30 03:25:17;;;;;;;18.47;9.50;;;7.90;99.90;;;;;;5067052;28;20226;-78
2021/04/30 03:27:43;;;;;;;27.73;11.17;;;7.90;99.90;;;;;;5067339;28;20251;-80
2021/04/30 03:30:12;;;;;;;22.90;9.47;;;7.90;99.90;;;;;;5067176;28;20568;-78
2021/04/30 03:32:39;;;;;;;13.83;8.13;;;7.80;99.90;;;;;;5066324;28;20198;-80
2021/04/30 03:35:07;;;;;;;11.23;6.93;;;7.80;99.90;;;;;;5066788;28;20237;-79
2021/04/30 03:37:34;;;;;;;16.33;8.40;;;7.80;99.90;;;;;;5066175;28;20493;-81
2021/04/30 03:40:01;;;;;;;15.13;8.43;;;7.80;99.90;;;;;;5067709;28;20228;-81
2021/04/30 03:42:28;;;;;;;17.53;9.30;;;7.80;99.90;;;;;;5066616;28;20225;-78
2021/04/30 03:44:54;;;;;;;15.47;9.50;;;7.80;99.90;;;;;;5066323;28;20197;-78
2021/04/30 03:47:20;;;;;;;20.27;9.00;;;7.80;99.90;;;;;;5066404;28;20193;-79
2021/04/30 03:49:47;;;;;;;17.17;9.63;;;7.80;99.90;;;;;;5066172;28;20216;-78
2021/04/30 03:52:13;;;;;;;15.93;8.70;;;7.80;99.90;;;;;;5067003;28;20202;-78
2021/04/30 03:54:39;;;;;;;18.30;9.63;;;7.80;99.90;;;;;;5067418;28;20233;-79
2021/04/30 03:57:06;;;;;;;22.00;10.13;;;7.80;99.90;;;;;;5078413;28;20212;-81
2021/04/30 03:59:33;;;;;;;15.20;8.13;;;7.80;99.90;;;;;;5086983;28;20197;-81
2021/04/30 04:01:59;;;;;;;16.20;8.60;;;7.80;99.90;;;;;;5084144;28;20204;-81
2021/04/30 04:04:26;;;;;;;20.40;9.47;;;7.80;99.90;;;;;;5065914;28;20206;-81
2021/04/30 04:06:52;;;;;;;18.63;9.83;;;7.80;99.90;;;;;;5065473;28;20212;-80
2021/04/30 04:09:18;;;;;;;21.23;9.47;;;7.80;99.90;;;;;;5065799;28;20582;-80
2021/04/30 04:11:45;;;;;;;20.47;10.50;;;7.90;99.90;;;;;;5065288;28;20668;-79
2021/04/30 04:14:13;;;;;;;21.13;9.23;;;7.90;99.90;;;;;;5080804;28;20292;-77
2021/04/30 04:16:39;;;;;;;19.23;10.87;;;7.90;99.90;;;;;;5085638;28;20488;-78
2021/04/30 04:19:05;;;;;;;16.63;8.40;;;7.90;99.90;;;;;;5085465;28;20208;-78
2021/04/30 04:21:32;;;;;;;18.33;9.77;;;7.90;99.90;;;;;;5086497;28;20211;-77
2021/04/30 04:23:58;;;;;;;16.17;9.80;;;7.90;99.90;;;;;;5070880;28;20255;-81
2021/04/30 04:26:25;;;;;;;17.90;9.00;;;7.90;99.90;;;;;;5065228;28;20224;-79
2021/04/30 04:28:51;;;;;;;19.13;9.73;;;7.80;99.90;;;;;;5066026;28;20198;-80
2021/04/30 04:31:18;;;;;;;23.10;11.73;;;7.80;99.90;;;;;;5065536;28;20201;-82
2021/04/30 04:33:44;;;;;;;16.83;10.03;;;7.90;99.90;;;;;;5064996;28;20205;-79
2021/04/30 04:36:10;;;;;;;19.97;10.60;;;7.90;99.90;;;;;;5065879;28;20196;-78
2021/04/30 04:38:37;;;;;;;15.87;9.80;;;7.90;99.90;;;;;;5064113;28;20209;-78
2021/04/30 04:41:03;;;;;;;19.13;10.67;;;7.90;99.90;;;;;;5065124;28;20275;-78
2021/04/30 04:43:29;;;;;;;15.53;9.73;;;7.90;99.90;;;;;;5065249;28;20225;-80
2021/04/30 04:45:56;;;;;;;18.00;10.27;;;8.00;99.90;;;;;;5064981;28;20212;-77
2021/04/30 04:48:23;;;;;;;18.67;11.00;;;7.90;99.90;;;;;;5064714;28;20220;-77
2021/04/30 04:50:49;;;;;;;15.30;9.83;;;7.90;99.90;;;;;;5064131;28;20205;-79
2021/04/30 04:53:15;;;;;;;21.10;9.67;;;8.00;99.90;;;;;;5064222;28;20298;-81
2021/04/30 04:55:42;;;;;;;16.47;10.83;;;7.90;99.90;;;;;;5065774;28;20216;-81
2021/04/30 04:58:08;;;;;;;19.10;10.57;;;8.00;99.90;;;;;;5065594;28;20263;-77
2021/04/30 05:00:35;;;;;;;20.40;10.00;;;8.00;99.90;;;;;;5064745;28;20263;-78
2021/04/30 05:03:01;;;;;;;20.53;10.97;;;8.10;99.90;;;;;;5065933;28;20221;-81
2021/04/30 05:05:28;;;;;;;19.07;10.20;;;8.10;99.90;;;;;;5065875;28;20208;-78
2021/04/30 05:07:54;;;;;;;21.73;11.07;;;8.10;99.90;;;;;;5064292;28;20234;-79
2021/04/30 05:10:20;;;;;;;24.10;12.23;;;8.10;99.90;;;;;;5065552;28;20201;-77
2021/04/30 05:12:47;;;;;;;20.67;11.30;;;8.10;99.90;;;;;;5064027;28;20201;-82
2021/04/30 05:15:14;;;;;;;21.23;10.37;;;8.10;99.90;;;;;;5064038;28;20201;-81
2021/04/30 05:17:43;;;;;;;19.80;10.57;;;8.20;99.90;;;;;;5063822;28;20193;-77
2021/04/30 05:20:10;;;;;;;18.87;10.10;;;8.20;99.90;;;;;;5064458;28;20201;-77
2021/04/30 05:22:40;;;;;;;21.70;10.57;;;8.20;99.90;;;;;;5063485;28;20243;-76
2021/04/30 05:25:07;;;;;;;25.33;11.27;;;8.20;99.90;;;;;;5064014;28;20816;-77
2021/04/30 05:27:34;;;;;;;21.33;11.00;;;8.20;99.90;;;;;;5063348;28;20235;-78
2021/04/30 05:30:00;;;;;;;21.87;10.57;;;8.30;99.90;;;;;;5063863;28;20208;-78
2021/04/30 05:32:27;;;;;;;24.37;11.63;;;8.30;99.90;;;;;;5064194;28;20216;-78
2021/04/30 05:34:55;;;;;;;16.23;10.23;;;8.40;99.90;;;;;;5063109;28;20248;-79
2021/04/30 05:37:22;;;;;;;17.13;10.63;;;8.40;99.90;;;;;;5064886;28;20605;-80
2021/04/30 05:39:49;;;;;;;19.27;11.60;;;8.50;99.90;;;;;;5064742;28;20221;-81
2021/04/30 05:42:15;;;;;;;14.77;10.10;;;8.50;99.90;;;;;;5064163;28;20259;-80
2021/04/30 05:44:41;;;;;;;18.57;9.87;;;8.60;99.90;;;;;;5064831;28;20205;-79
2021/04/30 05:47:07;;;;;;;18.03;9.73;;;8.60;99.90;;;;;;5064764;28;20263;-82
2021/04/30 05:49:34;;;;;;;21.60;10.60;;;8.60;99.90;;;;;;5063740;28;20194;-77
2021/04/30 05:52:00;;;;;;;23.80;10.83;;;8.70;99.90;;;;;;5064542;28;20209;-77
2021/04/30 05:54:26;;;;;;;16.53;8.73;;;8.70;99.90;;;;;;5073094;28;20297;-79
2021/04/30 05:56:54;;;;;;;23.47;10.77;;;8.70;99.90;;;;;;5086266;28;20252;-77
2021/04/30 05:59:20;;;;;;;20.13;10.20;;;8.70;99.90;;;;;;5094252;22;20209;-76
2021/04/30 06:01:46;;;;;;;19.60;9.73;;;8.70;99.90;;;;;;5067040;28;20327;-78
2021/04/30 06:04:13;;;;;;;19.33;9.60;;;8.70;99.90;;;;;;5069046;28;20225;-82
2021/04/30 06:06:39;;;;;;;16.53;9.57;;;8.70;99.90;;;;;;5051328;28;20217;-80
2021/04/30 06:09:05;;;;;;;21.37;9.83;;;8.80;99.90;;;;;;5049130;28;20232;-79
2021/04/30 06:11:31;;;;;;;16.40;9.17;;;8.90;99.90;;;;;;5049562;28;20599;-83
2021/04/30 06:13:59;;;;;;;24.50;9.37;;;9.00;99.90;;;;;;5049247;28;20202;-80
2021/04/30 06:16:25;;;;;;;19.37;9.30;;;9.10;99.90;;;;;;5057687;28;20570;-82
2021/04/30 06:18:51;;;;;;;19.70;9.00;;;9.20;99.90;;;;;;5068617;28;20838;-79
2021/04/30 06:21:17;;;;;;;25.00;9.47;;;9.20;99.90;;;;;;5068792;28;20200;-79
2021/04/30 06:23:44;;;;;;;17.67;8.63;;;9.30;99.90;;;;;;5088834;28;20329;-78
2021/04/30 06:26:10;;;;;;;13.43;8.77;;;9.20;99.90;;;;;;5090176;28;20503;-79
2021/04/30 06:28:36;;;;;;;18.67;9.37;;;9.20;99.90;;;;;;5088647;28;20224;-80
2021/04/30 06:31:03;;;;;;;15.43;8.73;;;9.20;99.90;;;;;;5088604;28;20201;-79
2021/04/30 06:33:29;;;;;;;18.63;8.77;;;9.20;99.90;;;;;;5098731;28;20916;-82
2021/04/30 06:35:57;;;;;;;18.80;8.97;;;9.20;99.90;;;;;;5098220;28;20204;-84
2021/04/30 06:38:24;;;;;;;15.17;8.67;;;9.20;99.90;;;;;;5092323;28;20268;-82
2021/04/30 06:41:35;;;;;;;17.00;9.60;;;9.30;99.90;;;;;;5074769;28;20552;-78
2021/04/30 06:44:02;;;;;;;20.10;10.60;;;9.40;99.90;;;;;;5087831;28;20235;-78
2021/04/30 06:46:29;;;;;;;17.10;9.50;;;9.50;99.90;;;;;;5086809;28;20304;-79
2021/04/30 06:48:56;;;;;;;20.37;9.67;;;9.60;99.90;;;;;;5076348;28;20916;-78
2021/04/30 06:51:22;;;;;;;19.47;8.87;;;9.60;99.90;;;;;;5046732;28;20213;-79
2021/04/30 06:53:48;;;;;;;19.40;9.83;;;9.70;99.90;;;;;;5045767;28;20206;-78
2021/04/30 06:56:15;;;;;;;14.70;8.13;;;9.70;99.90;;;;;;5046636;28;20198;-78
2021/04/30 06:58:41;;;;;;;16.73;8.30;;;9.70;99.90;;;;;;5038892;28;20194;-77
2021/04/30 07:01:09;;;;;;;16.27;7.70;;;9.80;99.90;;;;;;5045773;28;20233;-79
2021/04/30 07:03:36;;;;;;;21.20;8.67;;;9.80;99.90;;;;;;5045957;28;20225;-78
2021/04/30 07:06:03;;;;;;;14.77;7.17;;;9.80;99.90;;;;;;5045532;28;20194;-79
2021/04/30 07:08:30;;;;;;;13.30;7.20;;;9.80;99.90;;;;;;5044023;28;20236;-79
2021/04/30 07:10:56;;;;;;;15.43;7.33;;;9.80;99.90;;;;;;5046544;28;20205;-78
2021/04/30 07:13:22;;;;;;;15.67;8.37;;;9.90;99.90;;;;;;5045548;28;20245;-79
2021/04/30 07:15:49;;;;;;;17.77;7.33;;;9.90;99.90;;;;;;5046382;28;20225;-79
2021/04/30 07:18:15;;;;;;;17.57;7.57;;;9.90;99.90;;;;;;5046163;28;20194;-78
2021/04/30 07:20:43;;;;;;;17.37;8.03;;;10.00;99.90;;;;;;5045319;28;20209;-78
2021/04/30 07:23:09;;;;;;;13.37;7.67;;;10.00;99.90;;;;;;5045778;28;20719;-77
2021/04/30 07:25:36;;;;;;;21.00;7.57;;;10.00;99.90;;;;;;5045849;28;20601;-77
2021/04/30 07:28:02;;;;;;;13.80;6.63;;;10.10;99.90;;;;;;5045547;28;20590;-77
2021/04/30 07:30:28;;;;;;;16.70;7.47;;;10.00;99.90;;;;;;5045996;28;20218;-76
2021/04/30 07:32:55;;;;;;;15.10;7.30;;;10.00;99.90;;;;;;5045532;28;20274;-79
2021/04/30 07:35:21;;;;;;;16.57;6.90;;;10.10;99.90;;;;;;5045621;28;20198;-77
2021/04/30 07:37:48;;;;;;;18.27;7.30;;;10.10;99.90;;;;;;5046071;28;20238;-78
2021/04/30 07:40:15;;;;;;;18.43;8.10;;;10.10;99.90;;;;;;5044680;28;20305;-78
2021/04/30 07:42:43;;;;;;;18.37;7.67;;;10.30;99.90;;;;;;5044652;28;20226;-78
2021/04/30 07:45:10;;;;;;;13.13;7.37;;;10.40;99.90;;;;;;5045126;28;20213;-79
2021/04/30 07:47:37;;;;;;;18.63;7.00;;;10.60;99.90;;;;;;5044811;28;20201;-77
2021/04/30 07:50:04;;;;;;;21.40;7.57;;;10.70;99.90;;;;;;5044626;28;20896;-77
2021/04/30 07:52:31;;;;;;;22.27;8.43;;;10.80;99.90;;;;;;5044517;28;20224;-78
2021/04/30 07:55:00;;;;;;;20.27;7.90;;;10.90;99.90;;;;;;5059032;28;20209;-77
2021/04/30 07:57:27;;;;;;;16.70;7.20;;;11.20;99.90;;;;;;5064794;28;20314;-78
2021/04/30 07:59:53;;;;;;;15.13;6.50;;;11.40;99.90;;;;;;5060477;28;20691;-77
2021/04/30 08:02:19;;;;;;;13.80;6.90;;;11.70;99.90;;;;;;5044087;28;20603;-78
2021/04/30 08:04:47;;;;;;;19.27;7.33;;;11.90;99.90;;;;;;5044208;28;20198;-76
2021/04/30 08:07:14;;;;;;;16.80;7.77;;;11.80;99.90;;;;;;5045401;28;20217;-77
2021/04/30 08:09:40;;;;;;;15.80;5.97;;;11.80;99.90;;;;;;5043635;28;20241;-78
2021/04/30 08:12:08;;;;;;;15.73;7.13;;;11.90;99.90;;;;;;5044789;28;20247;-78
2021/04/30 08:14:34;;;;;;;21.80;8.23;;;12.10;99.90;;;;;;5044132;28;20218;-76
2021/04/30 08:17:01;;;;;;;14.37;6.87;;;12.20;99.90;;;;;;5044062;28;20605;-78
2021/04/30 08:19:27;;;;;;;18.73;7.57;;;12.30;99.90;;;;;;5043877;28;20259;-76
2021/04/30 08:21:54;;;;;;;19.73;6.93;;;12.30;99.90;;;;;;5044592;28;20212;-76
2021/04/30 08:24:21;;;;;;;14.53;7.30;;;12.30;99.90;;;;;;5043664;28;20230;-77
2021/04/30 08:26:47;;;;;;;15.23;6.93;;;12.30;99.90;;;;;;5044200;28;20216;-78
2021/04/30 08:29:15;;;;;;;14.70;6.53;;;12.20;99.90;;;;;;5057653;28;20202;-78
2021/04/30 08:31:42;;;;;;;12.07;6.23;;;12.10;99.90;;;;;;5063175;28;20662;-78
2021/04/30 08:34:08;;;;;;;15.23;6.80;;;12.00;99.90;;;;;;5064095;28;20903;-77
2021/04/30 08:36:35;;;;;;;12.90;6.90;;;11.90;99.90;;;;;;5050868;28;20876;-76
2021/04/30 08:39:01;;;;;;;14.67;7.33;;;12.00;99.90;;;;;;5043987;28;20202;-78
2021/04/30 08:41:29;;;;;;;14.87;8.00;;;11.90;99.90;;;;;;5057787;28;20204;-77
2021/04/30 08:43:56;;;;;;;11.37;6.73;;;11.80;99.90;;;;;;5063180;28;20247;-77
2021/04/30 08:46:23;;;;;;;12.90;6.67;;;11.70;99.90;;;;;;5059015;28;20214;-77
2021/04/30 08:48:49;;;;;;;14.23;7.13;;;11.60;99.90;;;;;;5043450;28;20217;-77
2021/04/30 08:51:15;;;;;;;13.70;7.00;;;11.50;99.90;;;;;;5043733;28;20213;-77
2021/04/30 08:53:43;;;;;;;11.63;7.23;;;11.40;99.90;;;;;;5043120;28;20206;-77
2021/04/30 08:56:09;;;;;;;12.07;6.73;;;11.30;99.90;;;;;;5044185;28;20202;-77
2021/04/30 08:58:38;;;;;;;17.97;5.67;;;11.30;99.90;;;;;;5042954;28;20206;-77
2021/04/30 09:01:05;;;;;;;12.30;5.07;;;11.30;99.90;;;;;;5043658;28;20252;-77
2021/04/30 09:03:35;;;;;;;12.27;5.00;;;11.30;99.90;;;;;;5043129;28;20641;-77
2021/04/30 09:06:01;;;;;;;12.47;5.13;;;11.30;99.90;;;;;;5043143;28;20212;-78
2021/04/30 09:08:28;;;;;;;10.20;5.37;;;11.20;99.90;;;;;;5043518;28;20220;-77
2021/04/30 09:10:56;;;;;;;10.60;4.70;;;11.20;99.90;;;;;;5043252;28;20263;-78
2021/04/30 09:13:24;;;;;;;17.73;5.97;;;11.20;99.90;;;;;;5040617;28;20202;-78
2021/04/30 09:16:05;;;;;;;14.60;5.57;;;11.30;99.90;;;;;;5043854;28;20194;-77
2021/04/30 09:18:33;;;;;;;12.57;4.00;;;11.20;99.90;;;;;;5043347;28;20232;-77
2021/04/30 09:21:08;;;;;;;16.73;4.90;;;11.10;99.90;;;;;;5043819;28;20723;-77
2021/04/30 09:23:38;;;;;;;12.83;5.33;;;11.10;99.90;;;;;;5043291;28;20229;-78
2021/04/30 09:26:22;;;;;;;15.60;4.90;;;11.10;99.90;;;;;;5043473;28;20549;-78
2021/04/30 09:29:01;;;;;;;9.77;4.50;;;11.00;99.90;;;;;;5043175;28;20207;-78
2021/04/30 09:31:38;;;;;;;14.33;5.30;;;11.00;99.90;;;;;;5045037;28;20237;-78
2021/04/30 09:34:19;;;;;;;17.50;5.30;;;11.10;99.90;;;;;;5047799;28;20208;-75
2021/04/30 09:37:02;;;;;;;15.53;5.47;;;11.00;99.90;;;;;;5047938;28;20562;-79
2021/04/30 09:39:29;;;;;;;11.17;4.60;;;10.90;99.90;;;;;;5047266;28;20221;-78
2021/04/30 09:42:07;;;;;;;12.03;4.63;;;10.90;99.90;;;;;;5048981;28;20256;-77
2021/04/30 09:44:34;;;;;;;13.90;4.83;;;10.90;99.90;;;;;;5067357;28;20262;-79
2021/04/30 09:47:12;;;;;;;13.23;5.07;;;10.90;99.90;;;;;;5067489;28;20229;-79
2021/04/30 09:49:39;;;;;;;13.03;5.40;;;10.90;99.90;;;;;;5065680;28;20293;-78
2021/04/30 09:52:07;;;;;;;12.47;4.30;;;10.90;99.90;;;;;;5067203;28;20651;-78
2021/04/30 09:54:35;;;;;;;19.00;4.93;;;10.90;99.90;;;;;;5066226;28;20209;-79
2021/04/30 09:57:06;;;;;;;17.50;4.97;;;11.00;99.90;;;;;;5063010;28;20321;-79
2021/04/30 09:59:33;;;;;;;11.10;4.80;;;11.00;99.90;;;;;;5046871;28;20201;-79
2021/04/30 10:02:15;;;;;;;9.13;4.37;;;11.10;99.90;;;;;;5046614;28;20210;-79
2021/04/30 10:04:43;;;;;;;13.67;4.87;;;11.20;99.90;;;;;;5047800;28;20225;-78
2021/04/30 10:07:11;;;;;;;15.80;5.10;;;11.30;99.90;;;;;;5046701;28;20598;-78
2021/04/30 10:09:39;;;;;;;9.73;5.00;;;11.30;99.90;;;;;;5044779;28;20205;-78
2021/04/30 10:12:19;;;;;;;15.57;4.93;;;11.40;99.90;;;;;;5047362;28;20289;-79
2021/04/30 10:14:46;;;;;;;10.63;4.43;;;11.40;99.90;;;;;;5066152;28;20667;-79
2021/04/30 10:17:13;;;;;;;12.73;4.80;;;11.40;99.90;;;;;;5066521;28;20212;-79
2021/04/30 10:19:40;;;;;;;14.43;4.73;;;11.40;99.90;;;;;;5056812;28;20220;-78
2021/04/30 10:22:07;;;;;;;11.73;4.23;;;11.50;99.90;;;;;;5046873;28;20283;-78
2021/04/30 10:24:36;;;;;;;13.50;4.20;;;11.60;99.90;;;;;;5045468;28;20221;-78
2021/04/30 10:27:02;;;;;;;13.33;4.20;;;11.70;99.90;;;;;;5046649;28;20214;-79
2021/04/30 10:29:30;;;;;;;11.17;4.63;;;11.70;99.90;;;;;;5047175;28;20240;-78
2021/04/30 10:32:00;;;;;;;11.83;4.30;;;11.80;99.90;;;;;;5045600;28;20691;-78
2021/04/30 10:34:30;;;;;;;12.47;4.83;;;11.80;99.90;;;;;;5046292;28;20198;-79
2021/04/30 10:36:59;;;;;;;10.13;4.70;;;11.80;99.90;;;;;;5046737;28;20212;-78
2021/04/30 10:39:28;;;;;;;10.30;4.47;;;11.80;99.90;;;;;;5046371;28;20226;-81
2021/04/30 10:41:56;;;;;;;10.33;4.27;;;11.70;99.90;;;;;;5046355;28;20201;-81
2021/04/30 10:44:25;;;;;;;11.57;3.97;;;11.80;99.90;;;;;;5045548;28;20241;-80
2021/04/30 10:46:53;;;;;;;9.13;4.33;;;11.80;99.90;;;;;;5045972;28;20210;-78
2021/04/30 10:49:21;;;;;;;10.17;4.97;;;11.90;99.90;;;;;;5046440;28;20564;-79
2021/04/30 10:52:18;;;;;;;8.50;4.03;;;12.00;99.90;;;;;;5045445;28;20210;-79
2021/04/30 10:54:47;;;;;;;12.17;3.93;;;12.10;99.90;;;;;;5046063;28;20198;-80
2021/04/30 10:57:16;;;;;;;13.47;4.13;;;12.20;99.90;;;;;;5045810;28;20208;-79
2021/04/30 10:59:44;;;;;;;10.13;4.10;;;12.20;99.90;;;;;;5046039;28;20213;-78
2021/04/30 11:02:11;;;;;;;9.63;4.10;;;12.20;99.90;;;;;;5047141;28;20209;-79
2021/04/30 11:04:38;;;;;;;8.97;3.93;;;12.20;99.90;;;;;;5047435;28;20230;-79
2021/04/30 11:07:08;;;;;;;8.03;3.70;;;12.20;99.90;;;;;;5066865;28;20209;-80
2021/04/30 11:09:36;;;;;;;9.03;4.13;;;12.20;99.90;;;;;;5073799;28;20236;-80
2021/04/30 11:12:21;;;;;;;9.27;4.37;;;12.20;99.90;;;;;;5072571;28;20233;-79
2021/04/30 11:15:02;;;;;;;9.60;4.30;;;12.10;99.90;;;;;;5051888;28;20198;-77
2021/04/30 11:17:49;;;;;;;9.40;4.60;;;11.90;99.90;;;;;;5052310;28;20642;-79
2021/04/30 11:20:18;;;;;;;12.20;4.57;;;11.70;99.90;;;;;;5046527;28;20608;-77
2021/04/30 11:23:11;;;;;;;11.40;4.00;;;11.70;99.90;;;;;;5046062;28;20235;-78
2021/04/30 11:26:04;;;;;;;10.67;4.40;;;11.70;99.90;;;;;;5045622;28;20225;-79
2021/04/30 11:29:04;;;;;;;11.10;4.60;;;11.60;99.90;;;;;;5045481;28;20213;-78
2021/04/30 11:31:32;;;;;;;9.57;4.20;;;11.60;99.90;;;;;;5045789;28;20610;-80
2021/04/30 11:34:21;;;;;;;11.93;4.43;;;11.40;99.90;;;;;;5045335;28;20257;-78
2021/04/30 11:36:56;;;;;;;12.67;4.53;;;11.50;99.90;;;;;;5045926;28;20576;-78
2021/04/30 11:39:26;;;;;;;10.23;5.10;;;11.40;99.90;;;;;;5045671;28;20285;-79
2021/04/30 11:41:57;;;;;;;10.60;4.70;;;11.40;99.90;;;;;;5044638;28;20206;-79
2021/04/30 11:44:23;;;;;;;12.37;4.67;;;11.40;99.90;;;;;;5046240;28;20229;-79
2021/04/30 11:46:59;;;;;;;15.40;4.97;;;11.30;99.90;;;;;;5045039;28;20267;-76
2021/04/30 11:49:25;;;;;;;10.93;5.13;;;11.30;99.90;;;;;;5045915;28;20512;-79
2021/04/30 11:51:52;;;;;;;14.50;4.80;;;11.30;99.90;;;;;;5048719;28;20202;-81
2021/04/30 11:54:19;;;;;;;11.13;5.07;;;11.20;99.90;;;;;;5061829;28;20221;-80
2021/04/30 11:56:55;;;;;;;15.33;4.63;;;11.30;99.90;;;;;;5063278;28;20205;-78
2021/04/30 11:59:22;;;;;;;13.60;5.03;;;11.30;99.90;;;;;;5044365;28;20898;-80
2021/04/30 12:01:55;;;;;;;14.50;5.20;;;11.30;99.90;;;;;;5050523;28;20233;-80
2021/04/30 12:04:39;;;;;;;15.20;4.60;;;11.30;99.90;;;;;;5067715;28;20209;-81
2021/04/30 12:07:05;;;;;;;9.67;4.70;;;11.20;99.90;;;;;;5048212;28;20233;-82
2021/04/30 12:09:32;;;;;;;8.37;4.53;;;11.10;99.90;;;;;;5048490;28;20206;-80
2021/04/30 12:12:10;;;;;;;9.13;4.90;;;11.00;99.90;;;;;;5050165;28;20868;-83
2021/04/30 12:14:47;;;;;;;13.67;4.73;;;11.00;99.90;;;;;;5066195;28;20205;-83
2021/04/30 12:17:31;;;;;;;9.63;4.77;;;10.90;99.90;;;;;;5066274;28;20200;-81
2021/04/30 12:20:03;;;;;;;12.63;4.23;;;10.90;99.90;;;;;;5065401;28;20894;-83
2021/04/30 12:22:30;;;;;;;11.87;4.50;;;10.90;99.90;;;;;;5066619;28;20205;-79
2021/04/30 12:25:28;;;;;;;9.43;4.80;;;10.80;99.90;;;;;;5063289;28;20637;-82
2021/04/30 12:28:12;;;;;;;11.83;4.47;;;10.80;99.90;;;;;;5045966;28;20317;-81
2021/04/30 12:30:39;;;;;;;16.07;5.00;;;10.70;99.90;;;;;;5045370;28;20205;-81
2021/04/30 12:33:06;;;;;;;10.20;4.80;;;10.70;99.90;;;;;;5054671;28;20210;-80
2021/04/30 12:35:33;;;;;;;9.83;5.03;;;10.70;99.90;;;;;;5046044;28;20217;-78
2021/04/30 12:37:59;;;;;;;14.57;5.23;;;10.70;99.90;;;;;;5060757;28;20262;-78
2021/04/30 12:40:28;;;;;;;12.67;5.67;;;10.60;99.90;;;;;;5064583;28;20651;-78
2021/04/30 12:42:55;;;;;;;12.40;5.03;;;10.60;99.90;;;;;;5064471;28;20937;-76
2021/04/30 12:45:22;;;;;;;10.93;4.13;;;10.70;99.90;;;;;;5063944;28;20763;-78
2021/04/30 12:47:50;;;;;;;11.70;5.30;;;10.60;99.90;;;;;;5064297;28;20228;-79
2021/04/30 12:50:19;;;;;;;9.77;5.10;;;10.60;99.90;;;;;;5064096;28;20201;-79